sensor_id;sensor_type;location;lat;lon;timestamp;P1;durP1;ratioP1;P2;durP2;ratioP2
18822;SDS011;9540;51.550;7.980;2023-02-21T00:01:02;53.00;;;26.67;;
18822;SDS011;9540;51.550;7.980;2023-02-21T00:03:46;44.35;;;26.20;;
18822;SDS011;9540;51.550;7.980;2023-02-21T00:06:32;53.65;;;27.70;;
18822;SDS011;9540;51.550;7.980;2023-02-21T00:09:16;53.47;;;28.02;;
18822;SDS011;9540;51.550;7.980;2023-02-21T00:12:01;56.72;;;28.42;;
18822;SDS011;9540;51.550;7.980;2023-02-21T00:14:45;56.58;;;28.05;;
18822;SDS011;9540;51.550;7.980;2023-02-21T00:17:30;51.45;;;26.95;;
18822;SDS011;9540;51.550;7.980;2023-02-21T00:20:15;51.83;;;27.40;;
18822;SDS011;9540;51.550;7.980;2023-02-21T00:23:01;59.17;;;28.50;;
18822;SDS011;9540;51.550;7.980;2023-02-21T00:25:45;57.08;;;29.17;;
18822;SDS011;9540;51.550;7.980;2023-02-21T00:28:30;55.47;;;29.17;;
18822;SDS011;9540;51.550;7.980;2023-02-21T00:31:16;59.40;;;29.15;;
18822;SDS011;9540;51.550;7.980;2023-02-21T00:34:01;60.15;;;29.85;;
18822;SDS011;9540;51.550;7.980;2023-02-21T00:36:45;62.28;;;29.73;;
18822;SDS011;9540;51.550;7.980;2023-02-21T00:39:31;60.25;;;30.98;;
18822;SDS011;9540;51.550;7.980;2023-02-21T00:42:15;66.38;;;30.95;;
18822;SDS011;9540;51.550;7.980;2023-02-21T00:44:59;63.30;;;29.48;;
18822;SDS011;9540;51.550;7.980;2023-02-21T00:47:43;55.85;;;29.00;;
18822;SDS011;9540;51.550;7.980;2023-02-21T00:50:28;65.85;;;29.38;;
18822;SDS011;9540;51.550;7.980;2023-02-21T00:53:12;64.68;;;30.00;;
18822;SDS011;9540;51.550;7.980;2023-02-21T00:55:58;61.80;;;31.17;;
18822;SDS011;9540;51.550;7.980;2023-02-21T00:58:42;60.75;;;31.13;;
18822;SDS011;9540;51.550;7.980;2023-02-21T01:01:26;65.68;;;32.00;;
18822;SDS011;9540;51.550;7.980;2023-02-21T01:04:10;72.40;;;34.10;;
18822;SDS011;9540;51.550;7.980;2023-02-21T01:06:55;66.20;;;31.33;;
18822;SDS011;9540;51.550;7.980;2023-02-21T01:09:39;62.22;;;30.55;;
18822;SDS011;9540;51.550;7.980;2023-02-21T01:12:25;63.25;;;31.02;;
18822;SDS011;9540;51.550;7.980;2023-02-21T01:15:10;61.83;;;30.63;;
18822;SDS011;9540;51.550;7.980;2023-02-21T01:17:54;66.15;;;30.70;;
18822;SDS011;9540;51.550;7.980;2023-02-21T01:20:38;71.75;;;32.58;;
18822;SDS011;9540;51.550;7.980;2023-02-21T01:23:22;67.78;;;31.23;;
18822;SDS011;9540;51.550;7.980;2023-02-21T01:26:07;68.30;;;33.20;;
18822;SDS011;9540;51.550;7.980;2023-02-21T01:28:53;72.47;;;31.73;;
18822;SDS011;9540;51.550;7.980;2023-02-21T01:31:37;71.03;;;30.95;;
18822;SDS011;9540;51.550;7.980;2023-02-21T01:34:21;66.38;;;31.58;;
18822;SDS011;9540;51.550;7.980;2023-02-21T01:37:05;72.97;;;32.20;;
18822;SDS011;9540;51.550;7.980;2023-02-21T01:39:49;74.90;;;32.67;;
18822;SDS011;9540;51.550;7.980;2023-02-21T01:42:33;78.15;;;32.83;;
18822;SDS011;9540;51.550;7.980;2023-02-21T01:45:40;68.57;;;31.98;;
18822;SDS011;9540;51.550;7.980;2023-02-21T01:48:28;68.05;;;31.00;;
18822;SDS011;9540;51.550;7.980;2023-02-21T01:51:16;73.68;;;32.85;;
18822;SDS011;9540;51.550;7.980;2023-02-21T01:54:04;74.57;;;32.88;;
18822;SDS011;9540;51.550;7.980;2023-02-21T01:56:49;78.20;;;32.50;;
18822;SDS011;9540;51.550;7.980;2023-02-21T01:59:34;69.03;;;31.33;;
18822;SDS011;9540;51.550;7.980;2023-02-21T02:02:21;74.20;;;32.00;;
18822;SDS011;9540;51.550;7.980;2023-02-21T02:05:11;74.95;;;31.73;;
18822;SDS011;9540;51.550;7.980;2023-02-21T02:07:56;74.07;;;31.55;;
18822;SDS011;9540;51.550;7.980;2023-02-21T02:10:40;81.65;;;33.25;;
18822;SDS011;9540;51.550;7.980;2023-02-21T02:13:34;76.53;;;32.35;;
18822;SDS011;9540;51.550;7.980;2023-02-21T02:16:13;86.63;;;33.70;;
18822;SDS011;9540;51.550;7.980;2023-02-21T02:18:54;93.18;;;34.08;;
18822;SDS011;9540;51.550;7.980;2023-02-21T02:21:47;80.85;;;32.65;;
18822;SDS011;9540;51.550;7.980;2023-02-21T02:24:39;92.00;;;34.90;;
18822;SDS011;9540;51.550;7.980;2023-02-21T02:27:39;89.45;;;33.45;;
18822;SDS011;9540;51.550;7.980;2023-02-21T02:33:29;82.45;;;32.55;;
18822;SDS011;9540;51.550;7.980;2023-02-21T02:36:18;79.18;;;33.22;;
18822;SDS011;9540;51.550;7.980;2023-02-21T02:38:52;80.82;;;31.50;;
18822;SDS011;9540;51.550;7.980;2023-02-21T02:41:26;89.63;;;34.97;;
18822;SDS011;9540;51.550;7.980;2023-02-21T02:44:01;77.05;;;34.88;;
18822;SDS011;9540;51.550;7.980;2023-02-21T02:46:32;80.85;;;33.85;;
18822;SDS011;9540;51.550;7.980;2023-02-21T02:49:04;79.93;;;31.55;;
18822;SDS011;9540;51.550;7.980;2023-02-21T02:51:35;80.22;;;30.98;;
18822;SDS011;9540;51.550;7.980;2023-02-21T02:54:02;86.78;;;33.05;;
18822;SDS011;9540;51.550;7.980;2023-02-21T02:56:30;80.63;;;32.72;;
18822;SDS011;9540;51.550;7.980;2023-02-21T02:59:00;78.78;;;31.85;;
18822;SDS011;9540;51.550;7.980;2023-02-21T03:01:47;78.90;;;32.70;;
18822;SDS011;9540;51.550;7.980;2023-02-21T03:04:43;80.25;;;33.55;;
18822;SDS011;9540;51.550;7.980;2023-02-21T03:07:25;87.53;;;33.83;;
18822;SDS011;9540;51.550;7.980;2023-02-21T03:10:01;78.18;;;32.95;;
18822;SDS011;9540;51.550;7.980;2023-02-21T03:12:36;82.68;;;35.50;;
18822;SDS011;9540;51.550;7.980;2023-02-21T03:15:07;82.60;;;34.33;;
18822;SDS011;9540;51.550;7.980;2023-02-21T03:17:41;86.15;;;33.85;;
18822;SDS011;9540;51.550;7.980;2023-02-21T03:20:11;83.65;;;34.35;;
18822;SDS011;9540;51.550;7.980;2023-02-21T03:22:42;89.95;;;33.30;;
18822;SDS011;9540;51.550;7.980;2023-02-21T03:25:11;85.70;;;33.58;;
18822;SDS011;9540;51.550;7.980;2023-02-21T03:27:40;90.85;;;32.17;;
18822;SDS011;9540;51.550;7.980;2023-02-21T03:30:08;88.45;;;34.60;;
18822;SDS011;9540;51.550;7.980;2023-02-21T03:32:37;83.65;;;34.15;;
18822;SDS011;9540;51.550;7.980;2023-02-21T03:35:07;82.88;;;31.25;;
18822;SDS011;9540;51.550;7.980;2023-02-21T03:37:35;83.90;;;32.67;;
18822;SDS011;9540;51.550;7.980;2023-02-21T03:40:06;94.80;;;33.67;;
18822;SDS011;9540;51.550;7.980;2023-02-21T03:42:34;97.97;;;34.75;;
18822;SDS011;9540;51.550;7.980;2023-02-21T03:45:01;88.57;;;34.53;;
18822;SDS011;9540;51.550;7.980;2023-02-21T03:47:29;85.10;;;33.70;;
18822;SDS011;9540;51.550;7.980;2023-02-21T03:49:56;90.07;;;35.00;;
18822;SDS011;9540;51.550;7.980;2023-02-21T03:52:23;91.40;;;34.42;;
18822;SDS011;9540;51.550;7.980;2023-02-21T03:54:49;92.40;;;32.72;;
18822;SDS011;9540;51.550;7.980;2023-02-21T03:57:18;91.22;;;34.22;;
18822;SDS011;9540;51.550;7.980;2023-02-21T03:59:45;93.68;;;34.28;;
18822;SDS011;9540;51.550;7.980;2023-02-21T04:02:12;91.45;;;34.03;;
18822;SDS011;9540;51.550;7.980;2023-02-21T04:04:39;96.45;;;36.60;;
18822;SDS011;9540;51.550;7.980;2023-02-21T04:07:06;95.18;;;36.00;;
18822;SDS011;9540;51.550;7.980;2023-02-21T04:09:33;90.72;;;34.30;;
18822;SDS011;9540;51.550;7.980;2023-02-21T04:12:00;103.93;;;37.10;;
18822;SDS011;9540;51.550;7.980;2023-02-21T04:14:28;100.82;;;33.53;;
18822;SDS011;9540;51.550;7.980;2023-02-21T04:16:56;94.47;;;35.20;;
18822;SDS011;9540;51.550;7.980;2023-02-21T04:19:23;105.10;;;36.20;;
18822;SDS011;9540;51.550;7.980;2023-02-21T04:21:50;102.53;;;37.78;;
18822;SDS011;9540;51.550;7.980;2023-02-21T04:24:16;96.03;;;35.22;;
18822;SDS011;9540;51.550;7.980;2023-02-21T04:26:43;94.43;;;35.38;;
18822;SDS011;9540;51.550;7.980;2023-02-21T04:29:11;103.82;;;37.90;;
18822;SDS011;9540;51.550;7.980;2023-02-21T04:31:39;102.80;;;36.53;;
18822;SDS011;9540;51.550;7.980;2023-02-21T04:34:06;97.35;;;36.83;;
18822;SDS011;9540;51.550;7.980;2023-02-21T04:36:33;112.38;;;38.42;;
18822;SDS011;9540;51.550;7.980;2023-02-21T04:39:01;102.07;;;37.17;;
18822;SDS011;9540;51.550;7.980;2023-02-21T04:41:28;104.78;;;39.20;;
18822;SDS011;9540;51.550;7.980;2023-02-21T04:43:55;106.13;;;38.75;;
18822;SDS011;9540;51.550;7.980;2023-02-21T04:46:22;106.43;;;38.08;;
18822;SDS011;9540;51.550;7.980;2023-02-21T04:48:51;105.30;;;37.60;;
18822;SDS011;9540;51.550;7.980;2023-02-21T04:51:20;106.95;;;36.47;;
18822;SDS011;9540;51.550;7.980;2023-02-21T04:53:48;109.07;;;38.92;;
18822;SDS011;9540;51.550;7.980;2023-02-21T04:56:17;103.55;;;36.65;;
18822;SDS011;9540;51.550;7.980;2023-02-21T04:58:45;104.63;;;37.70;;
18822;SDS011;9540;51.550;7.980;2023-02-21T05:01:13;111.82;;;40.30;;
18822;SDS011;9540;51.550;7.980;2023-02-21T05:03:42;109.88;;;38.50;;
18822;SDS011;9540;51.550;7.980;2023-02-21T05:06:15;105.63;;;38.97;;
18822;SDS011;9540;51.550;7.980;2023-02-21T05:08:43;107.20;;;38.92;;
18822;SDS011;9540;51.550;7.980;2023-02-21T05:11:10;108.50;;;40.83;;
18822;SDS011;9540;51.550;7.980;2023-02-21T05:13:37;108.00;;;39.90;;
18822;SDS011;9540;51.550;7.980;2023-02-21T05:16:04;112.30;;;39.97;;
18822;SDS011;9540;51.550;7.980;2023-02-21T05:18:31;113.68;;;40.72;;
18822;SDS011;9540;51.550;7.980;2023-02-21T05:20:59;102.15;;;38.95;;
18822;SDS011;9540;51.550;7.980;2023-02-21T05:23:27;115.00;;;39.92;;
18822;SDS011;9540;51.550;7.980;2023-02-21T05:25:59;102.32;;;39.67;;
18822;SDS011;9540;51.550;7.980;2023-02-21T05:28:26;121.30;;;41.25;;
18822;SDS011;9540;51.550;7.980;2023-02-21T05:30:53;119.18;;;42.60;;
18822;SDS011;9540;51.550;7.980;2023-02-21T05:33:20;114.75;;;39.67;;
18822;SDS011;9540;51.550;7.980;2023-02-21T05:35:48;110.32;;;41.42;;
18822;SDS011;9540;51.550;7.980;2023-02-21T05:38:15;117.57;;;40.70;;
18822;SDS011;9540;51.550;7.980;2023-02-21T05:40:44;120.30;;;41.30;;
18822;SDS011;9540;51.550;7.980;2023-02-21T05:43:12;119.95;;;41.47;;
18822;SDS011;9540;51.550;7.980;2023-02-21T05:45:39;111.47;;;38.80;;
18822;SDS011;9540;51.550;7.980;2023-02-21T05:48:06;110.13;;;39.33;;
18822;SDS011;9540;51.550;7.980;2023-02-21T05:50:33;112.63;;;39.63;;
18822;SDS011;9540;51.550;7.980;2023-02-21T05:53:00;105.95;;;38.67;;
18822;SDS011;9540;51.550;7.980;2023-02-21T05:55:27;102.72;;;36.78;;
18822;SDS011;9540;51.550;7.980;2023-02-21T05:57:56;105.13;;;38.63;;
18822;SDS011;9540;51.550;7.980;2023-02-21T06:00:24;105.40;;;38.80;;
18822;SDS011;9540;51.550;7.980;2023-02-21T06:02:52;107.57;;;37.75;;
18822;SDS011;9540;51.550;7.980;2023-02-21T06:05:20;100.40;;;36.35;;
18822;SDS011;9540;51.550;7.980;2023-02-21T06:07:48;103.03;;;38.47;;
18822;SDS011;9540;51.550;7.980;2023-02-21T06:10:17;99.53;;;37.72;;
18822;SDS011;9540;51.550;7.980;2023-02-21T06:12:45;106.95;;;38.05;;
18822;SDS011;9540;51.550;7.980;2023-02-21T06:15:13;116.47;;;41.22;;
18822;SDS011;9540;51.550;7.980;2023-02-21T06:17:41;127.15;;;43.45;;
18822;SDS011;9540;51.550;7.980;2023-02-21T06:20:10;98.13;;;36.92;;
18822;SDS011;9540;51.550;7.980;2023-02-21T06:22:39;95.45;;;36.95;;
18822;SDS011;9540;51.550;7.980;2023-02-21T06:25:06;98.47;;;35.10;;
18822;SDS011;9540;51.550;7.980;2023-02-21T06:27:34;102.30;;;37.08;;
18822;SDS011;9540;51.550;7.980;2023-02-21T06:30:01;86.45;;;34.03;;
18822;SDS011;9540;51.550;7.980;2023-02-21T06:32:32;92.00;;;34.42;;
18822;SDS011;9540;51.550;7.980;2023-02-21T06:34:59;88.07;;;34.40;;
18822;SDS011;9540;51.550;7.980;2023-02-21T06:37:26;92.28;;;34.03;;
18822;SDS011;9540;51.550;7.980;2023-02-21T06:39:53;93.00;;;34.70;;
18822;SDS011;9540;51.550;7.980;2023-02-21T06:42:20;89.35;;;35.10;;
18822;SDS011;9540;51.550;7.980;2023-02-21T06:44:48;89.85;;;34.67;;
18822;SDS011;9540;51.550;7.980;2023-02-21T06:47:15;96.07;;;36.03;;
18822;SDS011;9540;51.550;7.980;2023-02-21T06:49:44;91.00;;;35.33;;
18822;SDS011;9540;51.550;7.980;2023-02-21T06:52:11;84.75;;;33.45;;
18822;SDS011;9540;51.550;7.980;2023-02-21T06:54:38;92.63;;;35.30;;
18822;SDS011;9540;51.550;7.980;2023-02-21T06:57:05;99.95;;;36.20;;
18822;SDS011;9540;51.550;7.980;2023-02-21T06:59:32;101.68;;;35.13;;
18822;SDS011;9540;51.550;7.980;2023-02-21T07:01:59;92.05;;;34.22;;
18822;SDS011;9540;51.550;7.980;2023-02-21T07:04:26;95.80;;;36.50;;
18822;SDS011;9540;51.550;7.980;2023-02-21T07:06:55;99.30;;;36.75;;
18822;SDS011;9540;51.550;7.980;2023-02-21T07:09:22;88.40;;;33.47;;
18822;SDS011;9540;51.550;7.980;2023-02-21T07:11:49;96.00;;;37.42;;
18822;SDS011;9540;51.550;7.980;2023-02-21T07:14:16;92.85;;;36.13;;
18822;SDS011;9540;51.550;7.980;2023-02-21T07:16:43;92.43;;;35.42;;
18822;SDS011;9540;51.550;7.980;2023-02-21T07:19:10;91.65;;;35.78;;
18822;SDS011;9540;51.550;7.980;2023-02-21T07:21:40;98.22;;;38.53;;
18822;SDS011;9540;51.550;7.980;2023-02-21T07:24:08;98.90;;;35.78;;
18822;SDS011;9540;51.550;7.980;2023-02-21T07:26:35;101.38;;;38.25;;
18822;SDS011;9540;51.550;7.980;2023-02-21T07:29:04;95.57;;;36.60;;
18822;SDS011;9540;51.550;7.980;2023-02-21T07:31:31;96.70;;;38.00;;
18822;SDS011;9540;51.550;7.980;2023-02-21T07:33:58;99.15;;;36.97;;
18822;SDS011;9540;51.550;7.980;2023-02-21T07:36:25;98.10;;;36.15;;
18822;SDS011;9540;51.550;7.980;2023-02-21T07:38:52;98.57;;;37.83;;
18822;SDS011;9540;51.550;7.980;2023-02-21T07:41:20;99.82;;;38.30;;
18822;SDS011;9540;51.550;7.980;2023-02-21T07:43:47;98.07;;;38.50;;
18822;SDS011;9540;51.550;7.980;2023-02-21T07:46:16;101.90;;;38.75;;
18822;SDS011;9540;51.550;7.980;2023-02-21T07:48:43;97.40;;;37.42;;
18822;SDS011;9540;51.550;7.980;2023-02-21T07:51:10;98.15;;;37.40;;
18822;SDS011;9540;51.550;7.980;2023-02-21T07:53:37;100.20;;;37.75;;
18822;SDS011;9540;51.550;7.980;2023-02-21T07:56:05;96.80;;;37.35;;
18822;SDS011;9540;51.550;7.980;2023-02-21T07:58:34;98.93;;;37.63;;
18822;SDS011;9540;51.550;7.980;2023-02-21T08:01:01;94.30;;;37.40;;
18822;SDS011;9540;51.550;7.980;2023-02-21T08:03:29;90.85;;;37.25;;
18822;SDS011;9540;51.550;7.980;2023-02-21T08:05:56;91.05;;;36.30;;
18822;SDS011;9540;51.550;7.980;2023-02-21T08:08:23;91.68;;;37.78;;
18822;SDS011;9540;51.550;7.980;2023-02-21T08:10:50;95.57;;;37.53;;
18822;SDS011;9540;51.550;7.980;2023-02-21T08:13:17;92.07;;;36.60;;
18822;SDS011;9540;51.550;7.980;2023-02-21T08:15:46;84.72;;;35.38;;
18822;SDS011;9540;51.550;7.980;2023-02-21T08:18:14;85.75;;;34.30;;
18822;SDS011;9540;51.550;7.980;2023-02-21T08:20:43;87.10;;;33.70;;
18822;SDS011;9540;51.550;7.980;2023-02-21T08:23:10;86.28;;;36.47;;
18822;SDS011;9540;51.550;7.980;2023-02-21T08:25:37;85.00;;;34.78;;
18822;SDS011;9540;51.550;7.980;2023-02-21T08:28:04;84.63;;;36.75;;
18822;SDS011;9540;51.550;7.980;2023-02-21T08:30:31;80.20;;;34.80;;
18822;SDS011;9540;51.550;7.980;2023-02-21T08:32:59;80.95;;;35.13;;
18822;SDS011;9540;51.550;7.980;2023-02-21T08:35:26;76.60;;;34.40;;
18822;SDS011;9540;51.550;7.980;2023-02-21T08:37:53;79.13;;;35.55;;
18822;SDS011;9540;51.550;7.980;2023-02-21T08:40:27;75.47;;;33.55;;
18822;SDS011;9540;51.550;7.980;2023-02-21T08:42:54;73.45;;;33.95;;
18822;SDS011;9540;51.550;7.980;2023-02-21T08:45:22;74.97;;;32.30;;
18822;SDS011;9540;51.550;7.980;2023-02-21T08:47:51;76.65;;;33.83;;
18822;SDS011;9540;51.550;7.980;2023-02-21T08:50:20;66.60;;;30.20;;
18822;SDS011;9540;51.550;7.980;2023-02-21T08:52:48;69.35;;;30.75;;
18822;SDS011;9540;51.550;7.980;2023-02-21T08:55:16;74.30;;;32.03;;
18822;SDS011;9540;51.550;7.980;2023-02-21T08:57:43;68.70;;;32.45;;
18822;SDS011;9540;51.550;7.980;2023-02-21T09:00:12;66.93;;;31.10;;
18822;SDS011;9540;51.550;7.980;2023-02-21T09:02:40;63.50;;;29.83;;
18822;SDS011;9540;51.550;7.980;2023-02-21T09:05:07;77.05;;;32.92;;
18822;SDS011;9540;51.550;7.980;2023-02-21T09:07:36;75.28;;;32.25;;
18822;SDS011;9540;51.550;7.980;2023-02-21T09:10:04;72.75;;;32.13;;
18822;SDS011;9540;51.550;7.980;2023-02-21T09:12:34;69.28;;;31.85;;
18822;SDS011;9540;51.550;7.980;2023-02-21T09:15:01;77.20;;;33.35;;
18822;SDS011;9540;51.550;7.980;2023-02-21T09:17:28;76.32;;;32.45;;
18822;SDS011;9540;51.550;7.980;2023-02-21T09:19:58;81.93;;;34.40;;
18822;SDS011;9540;51.550;7.980;2023-02-21T09:22:25;78.75;;;33.15;;
18822;SDS011;9540;51.550;7.980;2023-02-21T09:24:53;76.85;;;32.85;;
18822;SDS011;9540;51.550;7.980;2023-02-21T09:27:21;69.30;;;30.23;;
18822;SDS011;9540;51.550;7.980;2023-02-21T09:30:01;77.43;;;34.33;;
18822;SDS011;9540;51.550;7.980;2023-02-21T09:32:31;83.10;;;35.75;;
18822;SDS011;9540;51.550;7.980;2023-02-21T09:34:59;79.85;;;34.95;;
18822;SDS011;9540;51.550;7.980;2023-02-21T09:37:26;85.20;;;35.72;;
18822;SDS011;9540;51.550;7.980;2023-02-21T09:39:55;84.68;;;35.35;;
18822;SDS011;9540;51.550;7.980;2023-02-21T09:42:23;86.63;;;36.25;;
18822;SDS011;9540;51.550;7.980;2023-02-21T09:44:54;95.07;;;36.15;;
18822;SDS011;9540;51.550;7.980;2023-02-21T09:47:23;102.43;;;38.50;;
18822;SDS011;9540;51.550;7.980;2023-02-21T09:49:57;90.80;;;36.88;;
18822;SDS011;9540;51.550;7.980;2023-02-21T09:52:29;92.38;;;37.38;;
18822;SDS011;9540;51.550;7.980;2023-02-21T09:55:01;102.68;;;38.67;;
18822;SDS011;9540;51.550;7.980;2023-02-21T09:57:32;98.13;;;38.92;;
18822;SDS011;9540;51.550;7.980;2023-02-21T09:59:59;111.07;;;42.17;;
18822;SDS011;9540;51.550;7.980;2023-02-21T10:02:35;106.82;;;39.72;;
18822;SDS011;9540;51.550;7.980;2023-02-21T10:05:12;103.65;;;40.70;;
18822;SDS011;9540;51.550;7.980;2023-02-21T10:07:49;115.80;;;41.90;;
18822;SDS011;9540;51.550;7.980;2023-02-21T10:10:27;104.95;;;40.05;;
18822;SDS011;9540;51.550;7.980;2023-02-21T10:13:02;111.32;;;38.67;;
18822;SDS011;9540;51.550;7.980;2023-02-21T10:15:40;109.63;;;41.03;;
18822;SDS011;9540;51.550;7.980;2023-02-21T10:18:14;108.43;;;39.22;;
18822;SDS011;9540;51.550;7.980;2023-02-21T10:20:51;103.78;;;39.33;;
18822;SDS011;9540;51.550;7.980;2023-02-21T10:23:22;103.60;;;38.33;;
18822;SDS011;9540;51.550;7.980;2023-02-21T10:25:56;99.20;;;38.42;;
18822;SDS011;9540;51.550;7.980;2023-02-21T10:28:26;101.10;;;39.42;;
18822;SDS011;9540;51.550;7.980;2023-02-21T10:30:55;107.75;;;39.15;;
18822;SDS011;9540;51.550;7.980;2023-02-21T10:33:25;116.03;;;40.00;;
18822;SDS011;9540;51.550;7.980;2023-02-21T10:35:52;114.25;;;39.15;;
18822;SDS011;9540;51.550;7.980;2023-02-21T10:38:22;113.22;;;39.75;;
18822;SDS011;9540;51.550;7.980;2023-02-21T10:40:51;119.10;;;40.33;;
18822;SDS011;9540;51.550;7.980;2023-02-21T10:43:25;101.70;;;39.30;;
18822;SDS011;9540;51.550;7.980;2023-02-21T10:45:58;100.07;;;38.63;;
18822;SDS011;9540;51.550;7.980;2023-02-21T10:48:31;112.20;;;40.00;;
18822;SDS011;9540;51.550;7.980;2023-02-21T10:51:05;108.45;;;39.67;;
18822;SDS011;9540;51.550;7.980;2023-02-21T10:53:35;115.63;;;41.28;;
18822;SDS011;9540;51.550;7.980;2023-02-21T10:56:07;116.10;;;38.67;;
18822;SDS011;9540;51.550;7.980;2023-02-21T10:58:44;106.03;;;37.63;;
18822;SDS011;9540;51.550;7.980;2023-02-21T11:01:14;102.10;;;38.38;;
18822;SDS011;9540;51.550;7.980;2023-02-21T11:03:46;96.93;;;36.65;;
18822;SDS011;9540;51.550;7.980;2023-02-21T11:06:23;97.47;;;37.30;;
18822;SDS011;9540;51.550;7.980;2023-02-21T11:08:57;100.07;;;37.53;;
18822;SDS011;9540;51.550;7.980;2023-02-21T11:11:32;96.20;;;35.72;;
18822;SDS011;9540;51.550;7.980;2023-02-21T11:14:20;101.32;;;36.80;;
18822;SDS011;9540;51.550;7.980;2023-02-21T11:19:48;96.03;;;35.92;;
18822;SDS011;9540;51.550;7.980;2023-02-21T11:22:17;88.90;;;35.00;;
18822;SDS011;9540;51.550;7.980;2023-02-21T11:24:48;93.35;;;35.88;;
18822;SDS011;9540;51.550;7.980;2023-02-21T11:27:19;97.32;;;37.92;;
18822;SDS011;9540;51.550;7.980;2023-02-21T11:29:48;97.30;;;34.50;;
18822;SDS011;9540;51.550;7.980;2023-02-21T11:32:21;93.32;;;36.03;;
18822;SDS011;9540;51.550;7.980;2023-02-21T11:35:00;87.25;;;33.72;;
18822;SDS011;9540;51.550;7.980;2023-02-21T11:37:30;77.90;;;32.42;;
18822;SDS011;9540;51.550;7.980;2023-02-21T11:39:58;82.07;;;34.08;;
18822;SDS011;9540;51.550;7.980;2023-02-21T11:42:27;77.50;;;31.48;;
18822;SDS011;9540;51.550;7.980;2023-02-21T11:45:05;74.15;;;30.70;;
18822;SDS011;9540;51.550;7.980;2023-02-21T11:47:44;85.78;;;32.67;;
18822;SDS011;9540;51.550;7.980;2023-02-21T11:50:21;74.22;;;30.63;;
18822;SDS011;9540;51.550;7.980;2023-02-21T11:52:52;83.15;;;31.15;;
18822;SDS011;9540;51.550;7.980;2023-02-21T11:55:25;72.25;;;29.48;;
18822;SDS011;9540;51.550;7.980;2023-02-21T11:57:54;72.07;;;30.90;;
18822;SDS011;9540;51.550;7.980;2023-02-21T12:00:32;70.22;;;29.85;;
18822;SDS011;9540;51.550;7.980;2023-02-21T12:06:20;63.35;;;26.38;;
18822;SDS011;9540;51.550;7.980;2023-02-21T12:08:54;65.93;;;27.67;;
18822;SDS011;9540;51.550;7.980;2023-02-21T12:11:28;54.75;;;25.52;;
18822;SDS011;9540;51.550;7.980;2023-02-21T12:14:15;62.78;;;26.45;;
18822;SDS011;9540;51.550;7.980;2023-02-21T12:16:56;63.45;;;25.25;;
18822;SDS011;9540;51.550;7.980;2023-02-21T12:19:42;64.47;;;26.77;;
18822;SDS011;9540;51.550;7.980;2023-02-21T12:22:25;66.03;;;27.27;;
18822;SDS011;9540;51.550;7.980;2023-02-21T12:25:16;61.40;;;26.15;;
18822;SDS011;9540;51.550;7.980;2023-02-21T12:27:50;63.95;;;27.73;;
18822;SDS011;9540;51.550;7.980;2023-02-21T12:30:26;59.30;;;26.90;;
18822;SDS011;9540;51.550;7.980;2023-02-21T12:33:07;64.63;;;27.08;;
18822;SDS011;9540;51.550;7.980;2023-02-21T12:35:53;62.08;;;26.98;;
18822;SDS011;9540;51.550;7.980;2023-02-21T12:38:43;59.33;;;26.52;;
18822;SDS011;9540;51.550;7.980;2023-02-21T12:41:22;59.25;;;24.85;;
18822;SDS011;9540;51.550;7.980;2023-02-21T12:44:11;60.97;;;27.08;;
18822;SDS011;9540;51.550;7.980;2023-02-21T12:46:40;59.70;;;24.95;;
18822;SDS011;9540;51.550;7.980;2023-02-21T12:49:13;59.28;;;25.83;;
18822;SDS011;9540;51.550;7.980;2023-02-21T12:51:45;58.95;;;26.35;;
18822;SDS011;9540;51.550;7.980;2023-02-21T12:54:17;55.03;;;24.92;;
18822;SDS011;9540;51.550;7.980;2023-02-21T12:56:49;55.95;;;25.60;;
18822;SDS011;9540;51.550;7.980;2023-02-21T12:59:23;61.25;;;26.45;;
18822;SDS011;9540;51.550;7.980;2023-02-21T13:01:57;61.20;;;25.13;;
18822;SDS011;9540;51.550;7.980;2023-02-21T13:04:33;53.30;;;25.10;;
18822;SDS011;9540;51.550;7.980;2023-02-21T13:07:10;56.40;;;25.40;;
18822;SDS011;9540;51.550;7.980;2023-02-21T13:09:51;60.70;;;25.88;;
18822;SDS011;9540;51.550;7.980;2023-02-21T13:12:24;52.42;;;24.75;;
18822;SDS011;9540;51.550;7.980;2023-02-21T13:14:58;56.83;;;23.95;;
18822;SDS011;9540;51.550;7.980;2023-02-21T13:17:29;51.42;;;23.67;;
18822;SDS011;9540;51.550;7.980;2023-02-21T13:19:59;55.10;;;24.05;;
18822;SDS011;9540;51.550;7.980;2023-02-21T13:22:30;55.50;;;22.73;;
18822;SDS011;9540;51.550;7.980;2023-02-21T13:25:02;57.58;;;22.65;;
18822;SDS011;9540;51.550;7.980;2023-02-21T13:27:41;56.30;;;23.58;;
18822;SDS011;9540;51.550;7.980;2023-02-21T13:30:19;48.03;;;22.20;;
18822;SDS011;9540;51.550;7.980;2023-02-21T13:32:51;49.85;;;21.75;;
18822;SDS011;9540;51.550;7.980;2023-02-21T13:35:25;49.65;;;21.45;;
18822;SDS011;9540;51.550;7.980;2023-02-21T13:37:56;54.15;;;22.60;;
18822;SDS011;9540;51.550;7.980;2023-02-21T13:40:30;42.40;;;20.70;;
18822;SDS011;9540;51.550;7.980;2023-02-21T13:43:01;47.60;;;21.75;;
18822;SDS011;9540;51.550;7.980;2023-02-21T13:45:31;43.58;;;21.15;;
18822;SDS011;9540;51.550;7.980;2023-02-21T13:48:18;44.47;;;20.52;;
18822;SDS011;9540;51.550;7.980;2023-02-21T13:50:52;44.63;;;20.13;;
18822;SDS011;9540;51.550;7.980;2023-02-21T13:53:20;43.78;;;20.85;;
18822;SDS011;9540;51.550;7.980;2023-02-21T13:58:39;43.45;;;21.67;;
18822;SDS011;9540;51.550;7.980;2023-02-21T14:01:13;47.67;;;21.73;;
18822;SDS011;9540;51.550;7.980;2023-02-21T14:04:01;45.53;;;22.08;;
18822;SDS011;9540;51.550;7.980;2023-02-21T14:07:08;67.57;;;28.48;;
18822;SDS011;9540;51.550;7.980;2023-02-21T14:09:35;47.15;;;22.40;;
18822;SDS011;9540;51.550;7.980;2023-02-21T14:12:05;41.00;;;18.73;;
18822;SDS011;9540;51.550;7.980;2023-02-21T14:14:37;35.80;;;18.58;;
18822;SDS011;9540;51.550;7.980;2023-02-21T14:17:07;42.70;;;18.20;;
18822;SDS011;9540;51.550;7.980;2023-02-21T14:19:36;41.03;;;19.83;;
18822;SDS011;9540;51.550;7.980;2023-02-21T14:22:14;38.28;;;19.00;;
18822;SDS011;9540;51.550;7.980;2023-02-21T14:24:44;39.60;;;18.27;;
18822;SDS011;9540;51.550;7.980;2023-02-21T14:30:15;39.25;;;17.65;;
18822;SDS011;9540;51.550;7.980;2023-02-21T14:32:53;33.53;;;16.30;;
18822;SDS011;9540;51.550;7.980;2023-02-21T14:35:25;31.95;;;16.55;;
18822;SDS011;9540;51.550;7.980;2023-02-21T14:37:58;33.30;;;17.52;;
18822;SDS011;9540;51.550;7.980;2023-02-21T14:40:29;34.70;;;17.05;;
18822;SDS011;9540;51.550;7.980;2023-02-21T14:43:13;34.92;;;16.17;;
18822;SDS011;9540;51.550;7.980;2023-02-21T14:45:55;31.77;;;16.55;;
18822;SDS011;9540;51.550;7.980;2023-02-21T14:48:43;32.70;;;17.00;;
18822;SDS011;9540;51.550;7.980;2023-02-21T14:54:20;32.78;;;16.42;;
18822;SDS011;9540;51.550;7.980;2023-02-21T14:57:29;31.58;;;16.80;;
18822;SDS011;9540;51.550;7.980;2023-02-21T15:00:18;31.17;;;16.58;;
18822;SDS011;9540;51.550;7.980;2023-02-21T15:02:51;34.28;;;16.73;;
18822;SDS011;9540;51.550;7.980;2023-02-21T15:05:25;31.45;;;16.02;;
18822;SDS011;9540;51.550;7.980;2023-02-21T15:07:57;29.45;;;16.77;;
18822;SDS011;9540;51.550;7.980;2023-02-21T15:10:29;30.65;;;16.13;;
18822;SDS011;9540;51.550;7.980;2023-02-21T15:12:58;27.50;;;15.15;;
18822;SDS011;9540;51.550;7.980;2023-02-21T15:15:26;30.95;;;16.80;;
18822;SDS011;9540;51.550;7.980;2023-02-21T15:18:04;35.70;;;16.67;;
18822;SDS011;9540;51.550;7.980;2023-02-21T15:20:33;28.00;;;15.57;;
18822;SDS011;9540;51.550;7.980;2023-02-21T15:23:03;29.17;;;16.40;;
18822;SDS011;9540;51.550;7.980;2023-02-21T15:25:39;27.42;;;15.27;;